sensor_id;sensor_type;location;lat;lon;timestamp;temperature;humidity
17843;DHT22;69286;48.222;16.332;2023-05-07T00:00:49;16.20;96.70
17843;DHT22;69286;48.222;16.332;2023-05-07T00:03:16;16.30;96.80
17843;DHT22;69286;48.222;16.332;2023-05-07T00:05:44;16.30;96.60
17843;DHT22;69286;48.222;16.332;2023-05-07T00:08:12;16.20;96.90
17843;DHT22;69286;48.222;16.332;2023-05-07T00:10:39;16.30;96.50
17843;DHT22;69286;48.222;16.332;2023-05-07T00:13:06;16.30;96.40
17843;DHT22;69286;48.222;16.332;2023-05-07T00:15:33;16.20;96.60
17843;DHT22;69286;48.222;16.332;2023-05-07T00:18:01;16.20;96.30
17843;DHT22;69286;48.222;16.332;2023-05-07T00:20:28;16.20;95.80
17843;DHT22;69286;48.222;16.332;2023-05-07T00:22:55;16.10;95.90
17843;DHT22;69286;48.222;16.332;2023-05-07T00:25:22;16.00;96.10
17843;DHT22;69286;48.222;16.332;2023-05-07T00:27:49;16.10;96.00
17843;DHT22;69286;48.222;16.332;2023-05-07T00:30:16;16.00;96.30
17843;DHT22;69286;48.222;16.332;2023-05-07T00:32:43;16.00;96.20
17843;DHT22;69286;48.222;16.332;2023-05-07T00:35:12;16.00;96.10
17843;DHT22;69286;48.222;16.332;2023-05-07T00:37:39;16.00;96.30
17843;DHT22;69286;48.222;16.332;2023-05-07T00:40:07;15.90;96.00
17843;DHT22;69286;48.222;16.332;2023-05-07T00:42:34;15.90;96.40
17843;DHT22;69286;48.222;16.332;2023-05-07T00:45:02;15.90;96.20
17843;DHT22;69286;48.222;16.332;2023-05-07T00:47:29;15.80;96.70
17843;DHT22;69286;48.222;16.332;2023-05-07T00:49:57;15.90;96.40
17843;DHT22;69286;48.222;16.332;2023-05-07T00:52:25;15.90;96.20
17843;DHT22;69286;48.222;16.332;2023-05-07T00:54:53;15.90;96.00
17843;DHT22;69286;48.222;16.332;2023-05-07T00:57:21;15.80;96.10
17843;DHT22;69286;48.222;16.332;2023-05-07T00:59:49;15.70;96.40
17843;DHT22;69286;48.222;16.332;2023-05-07T01:02:17;15.60;96.60
17843;DHT22;69286;48.222;16.332;2023-05-07T01:04:44;15.50;96.60
17843;DHT22;69286;48.222;16.332;2023-05-07T01:07:11;15.50;96.60
17843;DHT22;69286;48.222;16.332;2023-05-07T01:09:39;15.50;97.30
17843;DHT22;69286;48.222;16.332;2023-05-07T01:12:07;15.50;97.10
17843;DHT22;69286;48.222;16.332;2023-05-07T01:14:35;15.50;96.50
17843;DHT22;69286;48.222;16.332;2023-05-07T01:17:02;15.50;96.50
17843;DHT22;69286;48.222;16.332;2023-05-07T01:19:29;15.50;96.30
17843;DHT22;69286;48.222;16.332;2023-05-07T01:22:01;15.50;96.40
17843;DHT22;69286;48.222;16.332;2023-05-07T01:24:31;15.50;96.40
17843;DHT22;69286;48.222;16.332;2023-05-07T01:26:59;15.50;96.20
17843;DHT22;69286;48.222;16.332;2023-05-07T01:29:27;15.50;96.30
17843;DHT22;69286;48.222;16.332;2023-05-07T01:31:55;15.50;96.20
17843;DHT22;69286;48.222;16.332;2023-05-07T01:34:25;15.50;96.10
17843;DHT22;69286;48.222;16.332;2023-05-07T01:36:54;15.60;95.70
17843;DHT22;69286;48.222;16.332;2023-05-07T01:39:24;15.50;95.60
17843;DHT22;69286;48.222;16.332;2023-05-07T01:41:54;15.50;95.80
17843;DHT22;69286;48.222;16.332;2023-05-07T01:44:22;15.50;95.60
17843;DHT22;69286;48.222;16.332;2023-05-07T01:46:49;15.50;95.60
17843;DHT22;69286;48.222;16.332;2023-05-07T01:49:16;15.50;95.70
17843;DHT22;69286;48.222;16.332;2023-05-07T01:51:44;15.50;95.40
17843;DHT22;69286;48.222;16.332;2023-05-07T01:54:11;15.40;95.90
17843;DHT22;69286;48.222;16.332;2023-05-07T01:56:38;15.40;95.40
17843;DHT22;69286;48.222;16.332;2023-05-07T01:59:06;15.40;95.40
17843;DHT22;69286;48.222;16.332;2023-05-07T02:01:33;15.40;95.20
17843;DHT22;69286;48.222;16.332;2023-05-07T02:04:00;15.40;95.50
17843;DHT22;69286;48.222;16.332;2023-05-07T02:06:27;15.40;95.30
17843;DHT22;69286;48.222;16.332;2023-05-07T02:08:54;15.40;95.50
17843;DHT22;69286;48.222;16.332;2023-05-07T02:11:21;15.40;95.70
17843;DHT22;69286;48.222;16.332;2023-05-07T02:13:48;15.40;95.40
17843;DHT22;69286;48.222;16.332;2023-05-07T02:16:16;15.40;95.70
17843;DHT22;69286;48.222;16.332;2023-05-07T02:18:44;15.30;95.80
17843;DHT22;69286;48.222;16.332;2023-05-07T02:21:11;15.40;95.80
17843;DHT22;69286;48.222;16.332;2023-05-07T02:23:38;15.30;96.00
17843;DHT22;69286;48.222;16.332;2023-05-07T02:26:05;15.40;96.20
17843;DHT22;69286;48.222;16.332;2023-05-07T02:28:32;15.40;95.90
17843;DHT22;69286;48.222;16.332;2023-05-07T02:31:02;15.40;96.30
17843;DHT22;69286;48.222;16.332;2023-05-07T02:33:31;15.40;95.80
17843;DHT22;69286;48.222;16.332;2023-05-07T02:36:06;15.30;96.40
17843;DHT22;69286;48.222;16.332;2023-05-07T02:38:33;15.30;96.50
17843;DHT22;69286;48.222;16.332;2023-05-07T02:41:00;15.30;96.60
17843;DHT22;69286;48.222;16.332;2023-05-07T02:43:27;15.30;96.50
17843;DHT22;69286;48.222;16.332;2023-05-07T02:46:01;15.30;96.80
17843;DHT22;69286;48.222;16.332;2023-05-07T02:48:29;15.30;96.50
17843;DHT22;69286;48.222;16.332;2023-05-07T02:50:56;15.30;96.60
17843;DHT22;69286;48.222;16.332;2023-05-07T02:53:23;15.40;96.40
17843;DHT22;69286;48.222;16.332;2023-05-07T02:55:52;15.40;96.10
17843;DHT22;69286;48.222;16.332;2023-05-07T02:58:19;15.50;96.00
17843;DHT22;69286;48.222;16.332;2023-05-07T03:00:46;15.40;96.30
17843;DHT22;69286;48.222;16.332;2023-05-07T03:03:13;15.30;96.40
17843;DHT22;69286;48.222;16.332;2023-05-07T03:05:41;15.30;96.60
17843;DHT22;69286;48.222;16.332;2023-05-07T03:08:09;15.30;96.40
17843;DHT22;69286;48.222;16.332;2023-05-07T03:10:36;15.30;96.70
17843;DHT22;69286;48.222;16.332;2023-05-07T03:13:03;15.30;96.60
17843;DHT22;69286;48.222;16.332;2023-05-07T03:15:31;15.20;96.70
17843;DHT22;69286;48.222;16.332;2023-05-07T03:17:58;15.20;96.90
17843;DHT22;69286;48.222;16.332;2023-05-07T03:20:24;15.20;96.90
17843;DHT22;69286;48.222;16.332;2023-05-07T03:22:53;15.10;97.20
17843;DHT22;69286;48.222;16.332;2023-05-07T03:25:20;15.00;97.40
17843;DHT22;69286;48.222;16.332;2023-05-07T03:27:47;15.00;97.50
17843;DHT22;69286;48.222;16.332;2023-05-07T03:30:14;15.00;97.60
17843;DHT22;69286;48.222;16.332;2023-05-07T03:32:41;15.10;97.50
17843;DHT22;69286;48.222;16.332;2023-05-07T03:35:08;15.10;97.30
17843;DHT22;69286;48.222;16.332;2023-05-07T03:37:35;15.00;97.40
17843;DHT22;69286;48.222;16.332;2023-05-07T03:40:05;15.00;97.40
17843;DHT22;69286;48.222;16.332;2023-05-07T03:42:33;15.00;97.70
17843;DHT22;69286;48.222;16.332;2023-05-07T03:45:00;15.00;97.80
17843;DHT22;69286;48.222;16.332;2023-05-07T03:47:27;15.00;97.90
17843;DHT22;69286;48.222;16.332;2023-05-07T03:49:54;15.00;97.80
17843;DHT22;69286;48.222;16.332;2023-05-07T03:52:21;15.00;97.90
17843;DHT22;69286;48.222;16.332;2023-05-07T03:54:51;14.90;98.00
17843;DHT22;69286;48.222;16.332;2023-05-07T03:57:20;14.90;98.30
17843;DHT22;69286;48.222;16.332;2023-05-07T03:59:47;14.90;98.50
17843;DHT22;69286;48.222;16.332;2023-05-07T04:02:14;14.80;98.30
17843;DHT22;69286;48.222;16.332;2023-05-07T04:04:41;14.90;98.50
17843;DHT22;69286;48.222;16.332;2023-05-07T04:07:08;15.00;98.10
17843;DHT22;69286;48.222;16.332;2023-05-07T04:09:35;15.00;98.20
17843;DHT22;69286;48.222;16.332;2023-05-07T04:12:02;15.10;97.80
17843;DHT22;69286;48.222;16.332;2023-05-07T04:14:32;15.00;98.20
17843;DHT22;69286;48.222;16.332;2023-05-07T04:16:59;15.00;98.20
17843;DHT22;69286;48.222;16.332;2023-05-07T04:19:26;15.10;98.10
17843;DHT22;69286;48.222;16.332;2023-05-07T04:21:53;15.10;98.20
17843;DHT22;69286;48.222;16.332;2023-05-07T04:24:20;15.20;98.00
17843;DHT22;69286;48.222;16.332;2023-05-07T04:26:47;15.30;98.00
17843;DHT22;69286;48.222;16.332;2023-05-07T04:29:14;15.40;97.60
17843;DHT22;69286;48.222;16.332;2023-05-07T04:31:42;15.50;96.90
17843;DHT22;69286;48.222;16.332;2023-05-07T04:34:10;15.60;96.70
17843;DHT22;69286;48.222;16.332;2023-05-07T04:36:38;15.60;96.50
17843;DHT22;69286;48.222;16.332;2023-05-07T04:39:05;15.70;96.80
17843;DHT22;69286;48.222;16.332;2023-05-07T04:41:32;15.70;96.30
17843;DHT22;69286;48.222;16.332;2023-05-07T04:43:59;15.80;96.20
17843;DHT22;69286;48.222;16.332;2023-05-07T04:46:26;15.80;96.00
17843;DHT22;69286;48.222;16.332;2023-05-07T04:48:54;15.90;96.10
17843;DHT22;69286;48.222;16.332;2023-05-07T04:51:21;15.90;95.60
17843;DHT22;69286;48.222;16.332;2023-05-07T04:53:48;16.00;95.80
17843;DHT22;69286;48.222;16.332;2023-05-07T04:56:16;16.10;95.20
17843;DHT22;69286;48.222;16.332;2023-05-07T04:58:43;16.20;94.90
17843;DHT22;69286;48.222;16.332;2023-05-07T05:01:10;16.20;94.90
17843;DHT22;69286;48.222;16.332;2023-05-07T05:03:36;16.30;94.50
17843;DHT22;69286;48.222;16.332;2023-05-07T05:06:06;16.40;94.30
17843;DHT22;69286;48.222;16.332;2023-05-07T05:08:33;16.40;94.10
17843;DHT22;69286;48.222;16.332;2023-05-07T05:11:01;16.50;94.00
17843;DHT22;69286;48.222;16.332;2023-05-07T05:13:28;16.50;93.70
17843;DHT22;69286;48.222;16.332;2023-05-07T05:15:55;16.50;93.60
17843;DHT22;69286;48.222;16.332;2023-05-07T05:18:22;16.60;93.40
17843;DHT22;69286;48.222;16.332;2023-05-07T05:20:51;16.70;93.70
17843;DHT22;69286;48.222;16.332;2023-05-07T05:23:20;16.70;93.20
17843;DHT22;69286;48.222;16.332;2023-05-07T05:25:46;16.80;92.80
17843;DHT22;69286;48.222;16.332;2023-05-07T05:28:13;16.80;92.80
17843;DHT22;69286;48.222;16.332;2023-05-07T05:30:40;16.80;93.10
17843;DHT22;69286;48.222;16.332;2023-05-07T05:33:07;16.80;92.60
17843;DHT22;69286;48.222;16.332;2023-05-07T05:35:34;16.80;92.70
17843;DHT22;69286;48.222;16.332;2023-05-07T05:38:01;16.90;93.00
17843;DHT22;69286;48.222;16.332;2023-05-07T05:40:30;16.90;92.60
17843;DHT22;69286;48.222;16.332;2023-05-07T05:42:57;17.00;92.50
17843;DHT22;69286;48.222;16.332;2023-05-07T05:45:24;17.00;92.30
17843;DHT22;69286;48.222;16.332;2023-05-07T05:47:52;17.10;92.00
17843;DHT22;69286;48.222;16.332;2023-05-07T05:50:19;17.20;91.50
17843;DHT22;69286;48.222;16.332;2023-05-07T05:52:46;17.20;91.50
17843;DHT22;69286;48.222;16.332;2023-05-07T05:55:13;17.30;91.40
17843;DHT22;69286;48.222;16.332;2023-05-07T05:57:41;17.50;90.80
17843;DHT22;69286;48.222;16.332;2023-05-07T06:00:09;17.70;89.80
17843;DHT22;69286;48.222;16.332;2023-05-07T06:02:37;17.90;88.40
17843;DHT22;69286;48.222;16.332;2023-05-07T06:05:04;18.00;86.80
17843;DHT22;69286;48.222;16.332;2023-05-07T06:07:31;18.10;86.00
17843;DHT22;69286;48.222;16.332;2023-05-07T06:09:58;18.20;85.30
17843;DHT22;69286;48.222;16.332;2023-05-07T06:12:25;18.20;84.40
17843;DHT22;69286;48.222;16.332;2023-05-07T06:14:54;18.30;83.50
17843;DHT22;69286;48.222;16.332;2023-05-07T06:17:21;18.30;82.60
17843;DHT22;69286;48.222;16.332;2023-05-07T06:19:48;18.30;82.30
17843;DHT22;69286;48.222;16.332;2023-05-07T06:22:15;18.30;82.70
17843;DHT22;69286;48.222;16.332;2023-05-07T06:24:42;18.50;81.90
17843;DHT22;69286;48.222;16.332;2023-05-07T06:27:09;18.60;81.90
17843;DHT22;69286;48.222;16.332;2023-05-07T06:29:36;18.80;79.30
17843;DHT22;69286;48.222;16.332;2023-05-07T06:32:10;18.90;78.40
17843;DHT22;69286;48.222;16.332;2023-05-07T06:34:38;19.00;77.80
17843;DHT22;69286;48.222;16.332;2023-05-07T06:37:05;19.10;77.10
17843;DHT22;69286;48.222;16.332;2023-05-07T06:39:33;19.20;76.00
17843;DHT22;69286;48.222;16.332;2023-05-07T06:42:00;19.40;74.50
17843;DHT22;69286;48.222;16.332;2023-05-07T06:44:27;19.40;75.00
17843;DHT22;69286;48.222;16.332;2023-05-07T06:46:54;19.60;73.90
17843;DHT22;69286;48.222;16.332;2023-05-07T06:49:23;19.80;72.70
17843;DHT22;69286;48.222;16.332;2023-05-07T06:51:50;20.00;72.80
17843;DHT22;69286;48.222;16.332;2023-05-07T06:54:16;20.20;70.10
17843;DHT22;69286;48.222;16.332;2023-05-07T06:56:43;20.10;69.50
17843;DHT22;69286;48.222;16.332;2023-05-07T06:59:10;19.80;69.70
17843;DHT22;69286;48.222;16.332;2023-05-07T07:01:37;19.60;71.00
17843;DHT22;69286;48.222;16.332;2023-05-07T07:04:04;19.40;72.20
17843;DHT22;69286;48.222;16.332;2023-05-07T07:06:33;19.40;72.40
17843;DHT22;69286;48.222;16.332;2023-05-07T07:09:00;19.60;71.80
17843;DHT22;69286;48.222;16.332;2023-05-07T07:11:27;19.70;71.20
17843;DHT22;69286;48.222;16.332;2023-05-07T07:13:54;19.70;70.70
17843;DHT22;69286;48.222;16.332;2023-05-07T07:16:21;19.80;70.00
17843;DHT22;69286;48.222;16.332;2023-05-07T07:18:48;19.80;69.90
17843;DHT22;69286;48.222;16.332;2023-05-07T07:21:15;20.00;69.10
17843;DHT22;69286;48.222;16.332;2023-05-07T07:23:44;20.20;68.60
17843;DHT22;69286;48.222;16.332;2023-05-07T07:26:11;20.30;68.30
17843;DHT22;69286;48.222;16.332;2023-05-07T07:28:42;20.50;67.10
17843;DHT22;69286;48.222;16.332;2023-05-07T07:31:10;20.40;67.30
17843;DHT22;69286;48.222;16.332;2023-05-07T07:33:37;20.40;66.90
17843;DHT22;69286;48.222;16.332;2023-05-07T07:36:05;20.30;67.30
17843;DHT22;69286;48.222;16.332;2023-05-07T07:38:32;20.20;66.20
17843;DHT22;69286;48.222;16.332;2023-05-07T07:41:01;20.10;66.00
17843;DHT22;69286;48.222;16.332;2023-05-07T07:43:28;20.00;66.10
17843;DHT22;69286;48.222;16.332;2023-05-07T07:45:55;19.90;66.80
17843;DHT22;69286;48.222;16.332;2023-05-07T07:48:22;19.80;67.50
17843;DHT22;69286;48.222;16.332;2023-05-07T07:50:50;19.70;68.50
17843;DHT22;69286;48.222;16.332;2023-05-07T07:53:18;19.70;68.70
17843;DHT22;69286;48.222;16.332;2023-05-07T07:55:45;19.70;68.40
17843;DHT22;69286;48.222;16.332;2023-05-07T07:58:13;19.80;68.40
17843;DHT22;69286;48.222;16.332;2023-05-07T08:00:40;19.80;68.40
17843;DHT22;69286;48.222;16.332;2023-05-07T08:03:09;19.80;68.40
17843;DHT22;69286;48.222;16.332;2023-05-07T08:05:36;19.90;67.80
17843;DHT22;69286;48.222;16.332;2023-05-07T08:08:04;19.80;67.00
17843;DHT22;69286;48.222;16.332;2023-05-07T08:10:31;19.70;68.10
17843;DHT22;69286;48.222;16.332;2023-05-07T08:13:00;19.80;67.10
17843;DHT22;69286;48.222;16.332;2023-05-07T08:15:28;19.80;66.80
17843;DHT22;69286;48.222;16.332;2023-05-07T08:17:55;19.90;66.80
17843;DHT22;69286;48.222;16.332;2023-05-07T08:20:23;20.10;66.70
17843;DHT22;69286;48.222;16.332;2023-05-07T08:22:51;20.20;66.70
17843;DHT22;69286;48.222;16.332;2023-05-07T08:25:18;20.20;66.40
17843;DHT22;69286;48.222;16.332;2023-05-07T08:27:45;20.20;65.50
17843;DHT22;69286;48.222;16.332;2023-05-07T08:30:13;20.20;65.00
17843;DHT22;69286;48.222;16.332;2023-05-07T08:32:41;20.20;65.70
17843;DHT22;69286;48.222;16.332;2023-05-07T08:35:09;20.20;65.70
17843;DHT22;69286;48.222;16.332;2023-05-07T08:37:36;20.30;65.30
17843;DHT22;69286;48.222;16.332;2023-05-07T08:40:04;20.60;64.50
17843;DHT22;69286;48.222;16.332;2023-05-07T08:42:31;20.90;62.50
17843;DHT22;69286;48.222;16.332;2023-05-07T08:45:03;20.90;61.50
17843;DHT22;69286;48.222;16.332;2023-05-07T08:47:39;20.90;61.50
17843;DHT22;69286;48.222;16.332;2023-05-07T08:50:08;20.90;62.10
17843;DHT22;69286;48.222;16.332;2023-05-07T08:52:36;21.30;60.90
17843;DHT22;69286;48.222;16.332;2023-05-07T08:55:04;21.90;59.80
17843;DHT22;69286;48.222;16.332;2023-05-07T08:57:31;22.00;58.90
17843;DHT22;69286;48.222;16.332;2023-05-07T08:59:58;21.90;58.50
17843;DHT22;69286;48.222;16.332;2023-05-07T09:02:25;21.80;58.70
17843;DHT22;69286;48.222;16.332;2023-05-07T09:04:51;21.60;59.50
17843;DHT22;69286;48.222;16.332;2023-05-07T09:07:21;21.60;59.10
17843;DHT22;69286;48.222;16.332;2023-05-07T09:09:49;21.60;58.50
17843;DHT22;69286;48.222;16.332;2023-05-07T09:12:19;21.60;59.50
17843;DHT22;69286;48.222;16.332;2023-05-07T09:14:46;21.70;60.00
17843;DHT22;69286;48.222;16.332;2023-05-07T09:17:13;21.60;60.60
17843;DHT22;69286;48.222;16.332;2023-05-07T09:19:42;21.70;60.40
17843;DHT22;69286;48.222;16.332;2023-05-07T09:22:10;22.00;60.30
17843;DHT22;69286;48.222;16.332;2023-05-07T09:24:38;22.40;58.90
17843;DHT22;69286;48.222;16.332;2023-05-07T09:27:06;22.60;58.00
17843;DHT22;69286;48.222;16.332;2023-05-07T09:29:35;22.50;57.40
17843;DHT22;69286;48.222;16.332;2023-05-07T09:32:03;22.30;57.90
17843;DHT22;69286;48.222;16.332;2023-05-07T09:34:30;22.60;58.30
17843;DHT22;69286;48.222;16.332;2023-05-07T09:36:58;23.10;56.70
17843;DHT22;69286;48.222;16.332;2023-05-07T09:39:25;23.80;54.80
17843;DHT22;69286;48.222;16.332;2023-05-07T09:41:54;23.80;54.60
17843;DHT22;69286;48.222;16.332;2023-05-07T09:44:21;23.60;54.50
17843;DHT22;69286;48.222;16.332;2023-05-07T09:46:54;23.30;55.30
17843;DHT22;69286;48.222;16.332;2023-05-07T09:49:22;23.90;54.30
17843;DHT22;69286;48.222;16.332;2023-05-07T09:51:51;24.80;51.80
17843;DHT22;69286;48.222;16.332;2023-05-07T09:54:18;25.40;50.60
17843;DHT22;69286;48.222;16.332;2023-05-07T09:56:46;25.60;50.20
17843;DHT22;69286;48.222;16.332;2023-05-07T09:59:16;25.30;50.20
17843;DHT22;69286;48.222;16.332;2023-05-07T10:01:44;24.90;51.30
17843;DHT22;69286;48.222;16.332;2023-05-07T10:04:12;24.60;51.70
17843;DHT22;69286;48.222;16.332;2023-05-07T10:06:39;24.30;52.30
17843;DHT22;69286;48.222;16.332;2023-05-07T10:09:07;24.20;52.70
17843;DHT22;69286;48.222;16.332;2023-05-07T10:11:36;24.00;53.00
17843;DHT22;69286;48.222;16.332;2023-05-07T10:14:03;23.80;53.10
17843;DHT22;69286;48.222;16.332;2023-05-07T10:16:34;23.70;53.20
17843;DHT22;69286;48.222;16.332;2023-05-07T10:19:02;23.60;53.40
17843;DHT22;69286;48.222;16.332;2023-05-07T10:21:30;23.50;53.70
17843;DHT22;69286;48.222;16.332;2023-05-07T10:23:59;23.50;53.60
17843;DHT22;69286;48.222;16.332;2023-05-07T10:26:28;23.50;53.80
17843;DHT22;69286;48.222;16.332;2023-05-07T10:28:59;23.40;53.80
17843;DHT22;69286;48.222;16.332;2023-05-07T10:31:57;23.30;54.10
17843;DHT22;69286;48.222;16.332;2023-05-07T10:34:29;23.30;54.30
17843;DHT22;69286;48.222;16.332;2023-05-07T10:36:59;23.20;54.90
17843;DHT22;69286;48.222;16.332;2023-05-07T10:39:27;23.20;55.20
17843;DHT22;69286;48.222;16.332;2023-05-07T10:41:54;23.20;54.80
17843;DHT22;69286;48.222;16.332;2023-05-07T10:44:27;23.30;55.20
17843;DHT22;69286;48.222;16.332;2023-05-07T10:47:09;23.30;54.70
17843;DHT22;69286;48.222;16.332;2023-05-07T10:49:37;23.20;54.90
17843;DHT22;69286;48.222;16.332;2023-05-07T10:52:17;23.10;55.30
17843;DHT22;69286;48.222;16.332;2023-05-07T10:54:45;23.00;55.20
17843;DHT22;69286;48.222;16.332;2023-05-07T10:57:34;23.00;55.40
17843;DHT22;69286;48.222;16.332;2023-05-07T11:00:41;23.00;55.10
17843;DHT22;69286;48.222;16.332;2023-05-07T11:03:10;23.10;55.20
17843;DHT22;69286;48.222;16.332;2023-05-07T11:05:38;23.10;55.20
17843;DHT22;69286;48.222;16.332;2023-05-07T11:08:05;23.20;54.60
17843;DHT22;69286;48.222;16.332;2023-05-07T11:10:49;23.10;54.60
17843;DHT22;69286;48.222;16.332;2023-05-07T11:13:17;23.10;54.40
17843;DHT22;69286;48.222;16.332;2023-05-07T11:15:46;23.20;54.30
17843;DHT22;69286;48.222;16.332;2023-05-07T11:18:16;23.10;54.30
17843;DHT22;69286;48.222;16.332;2023-05-07T11:20:48;23.20;54.60
17843;DHT22;69286;48.222;16.332;2023-05-07T11:23:56;23.20;55.20
17843;DHT22;69286;48.222;16.332;2023-05-07T11:26:27;23.20;55.00
17843;DHT22;69286;48.222;16.332;2023-05-07T11:28:54;23.20;54.00
17843;DHT22;69286;48.222;16.332;2023-05-07T11:31:24;23.20;54.10
17843;DHT22;69286;48.222;16.332;2023-05-07T11:33:53;23.10;53.50
17843;DHT22;69286;48.222;16.332;2023-05-07T11:36:22;23.00;53.50
17843;DHT22;69286;48.222;16.332;2023-05-07T11:38:49;23.00;53.80
17843;DHT22;69286;48.222;16.332;2023-05-07T11:41:16;23.00;53.90
17843;DHT22;69286;48.222;16.332;2023-05-07T11:43:58;23.00;54.30
17843;DHT22;69286;48.222;16.332;2023-05-07T11:46:27;23.10;53.80
17843;DHT22;69286;48.222;16.332;2023-05-07T11:48:56;23.00;53.70
17843;DHT22;69286;48.222;16.332;2023-05-07T11:51:24;23.00;54.00
17843;DHT22;69286;48.222;16.332;2023-05-07T11:53:53;23.00;54.20
17843;DHT22;69286;48.222;16.332;2023-05-07T11:56:21;23.00;53.90
17843;DHT22;69286;48.222;16.332;2023-05-07T11:58:49;23.00;54.10
17843;DHT22;69286;48.222;16.332;2023-05-07T12:01:17;23.00;53.90
17843;DHT22;69286;48.222;16.332;2023-05-07T12:03:45;22.90;53.70
17843;DHT22;69286;48.222;16.332;2023-05-07T12:06:15;22.90;53.90
17843;DHT22;69286;48.222;16.332;2023-05-07T12:08:43;23.00;53.50
17843;DHT22;69286;48.222;16.332;2023-05-07T12:11:14;22.90;53.40
17843;DHT22;69286;48.222;16.332;2023-05-07T12:13:43;22.90;53.60
17843;DHT22;69286;48.222;16.332;2023-05-07T12:16:10;22.90;53.90
17843;DHT22;69286;48.222;16.332;2023-05-07T12:18:37;22.80;54.20
17843;DHT22;69286;48.222;16.332;2023-05-07T12:21:05;22.80;54.40
17843;DHT22;69286;48.222;16.332;2023-05-07T12:23:35;22.80;54.60
17843;DHT22;69286;48.222;16.332;2023-05-07T12:26:03;22.80;54.10
17843;DHT22;69286;48.222;16.332;2023-05-07T12:28:32;22.90;54.10
17843;DHT22;69286;48.222;16.332;2023-05-07T12:31:03;23.00;53.90
17843;DHT22;69286;48.222;16.332;2023-05-07T12:33:30;23.00;53.40
17843;DHT22;69286;48.222;16.332;2023-05-07T12:36:00;23.00;53.40
17843;DHT22;69286;48.222;16.332;2023-05-07T12:38:36;23.00;53.70
17843;DHT22;69286;48.222;16.332;2023-05-07T12:41:04;23.10;53.90
17843;DHT22;69286;48.222;16.332;2023-05-07T12:43:32;23.00;54.20
17843;DHT22;69286;48.222;16.332;2023-05-07T12:46:01;22.90;54.10
17843;DHT22;69286;48.222;16.332;2023-05-07T12:48:28;22.90;54.30
17843;DHT22;69286;48.222;16.332;2023-05-07T12:50:56;22.80;54.10
17843;DHT22;69286;48.222;16.332;2023-05-07T12:53:25;22.80;53.90
17843;DHT22;69286;48.222;16.332;2023-05-07T12:55:55;22.80;54.50
17843;DHT22;69286;48.222;16.332;2023-05-07T12:58:25;22.80;53.90
17843;DHT22;69286;48.222;16.332;2023-05-07T13:00:52;22.80;53.80
17843;DHT22;69286;48.222;16.332;2023-05-07T13:03:25;22.90;53.40
17843;DHT22;69286;48.222;16.332;2023-05-07T13:05:52;22.90;53.10
17843;DHT22;69286;48.222;16.332;2023-05-07T13:08:31;22.80;52.70
17843;DHT22;69286;48.222;16.332;2023-05-07T13:11:01;22.80;53.30
17843;DHT22;69286;48.222;16.332;2023-05-07T13:13:29;22.80;53.40
17843;DHT22;69286;48.222;16.332;2023-05-07T13:15:56;22.90;53.20
17843;DHT22;69286;48.222;16.332;2023-05-07T13:18:24;22.90;52.80
17843;DHT22;69286;48.222;16.332;2023-05-07T13:20:51;23.00;53.00
17843;DHT22;69286;48.222;16.332;2023-05-07T13:23:19;23.10;52.50
17843;DHT22;69286;48.222;16.332;2023-05-07T13:25:46;23.10;52.50
17843;DHT22;69286;48.222;16.332;2023-05-07T13:28:14;23.20;51.90
17843;DHT22;69286;48.222;16.332;2023-05-07T13:30:41;23.20;51.70
17843;DHT22;69286;48.222;16.332;2023-05-07T13:33:08;23.20;51.70
17843;DHT22;69286;48.222;16.332;2023-05-07T13:35:36;23.10;52.20
17843;DHT22;69286;48.222;16.332;2023-05-07T13:38:03;23.10;52.10
17843;DHT22;69286;48.222;16.332;2023-05-07T13:40:30;23.10;52.20
17843;DHT22;69286;48.222;16.332;2023-05-07T13:42:58;23.00;52.70
17843;DHT22;69286;48.222;16.332;2023-05-07T13:45:29;22.90;52.30
17843;DHT22;69286;48.222;16.332;2023-05-07T13:47:56;22.70;52.30
17843;DHT22;69286;48.222;16.332;2023-05-07T13:50:23;22.70;52.50
17843;DHT22;69286;48.222;16.332;2023-05-07T13:52:52;22.60;52.50
17843;DHT22;69286;48.222;16.332;2023-05-07T13:55:20;22.50;51.80
17843;DHT22;69286;48.222;16.332;2023-05-07T13:57:53;22.40;52.50
17843;DHT22;69286;48.222;16.332;2023-05-07T14:00:20;22.30;52.70
17843;DHT22;69286;48.222;16.332;2023-05-07T14:02:49;22.30;52.90
17843;DHT22;69286;48.222;16.332;2023-05-07T14:05:16;22.50;53.00
17843;DHT22;69286;48.222;16.332;2023-05-07T14:07:43;22.30;52.50
17843;DHT22;69286;48.222;16.332;2023-05-07T14:10:10;22.30;52.60
17843;DHT22;69286;48.222;16.332;2023-05-07T14:12:38;22.30;52.70
17843;DHT22;69286;48.222;16.332;2023-05-07T14:15:06;22.40;52.30
17843;DHT22;69286;48.222;16.332;2023-05-07T14:17:33;22.40;52.60
17843;DHT22;69286;48.222;16.332;2023-05-07T14:20:02;22.20;52.50
17843;DHT22;69286;48.222;16.332;2023-05-07T14:22:29;22.10;52.90
17843;DHT22;69286;48.222;16.332;2023-05-07T14:24:56;21.90;53.40
17843;DHT22;69286;48.222;16.332;2023-05-07T14:27:23;21.90;53.50
17843;DHT22;69286;48.222;16.332;2023-05-07T14:29:51;21.80;53.00
17843;DHT22;69286;48.222;16.332;2023-05-07T14:32:17;21.80;52.90
17843;DHT22;69286;48.222;16.332;2023-05-07T14:34:45;21.80;53.00
17843;DHT22;69286;48.222;16.332;2023-05-07T14:37:13;21.80;53.50
17843;DHT22;69286;48.222;16.332;2023-05-07T14:39:40;21.70;54.10
17843;DHT22;69286;48.222;16.332;2023-05-07T14:42:07;21.70;54.70
17843;DHT22;69286;48.222;16.332;2023-05-07T14:44:34;21.60;54.60
17843;DHT22;69286;48.222;16.332;2023-05-07T14:47:02;21.60;55.20
17843;DHT22;69286;48.222;16.332;2023-05-07T14:49:29;21.60;54.90
17843;DHT22;69286;48.222;16.332;2023-05-07T14:51:57;21.60;54.80
17843;DHT22;69286;48.222;16.332;2023-05-07T14:54:27;21.70;54.80
17843;DHT22;69286;48.222;16.332;2023-05-07T14:56:55;21.70;54.80
17843;DHT22;69286;48.222;16.332;2023-05-07T14:59:22;21.60;54.70
17843;DHT22;69286;48.222;16.332;2023-05-07T15:01:50;21.70;54.60
17843;DHT22;69286;48.222;16.332;2023-05-07T15:04:17;21.60;54.60
17843;DHT22;69286;48.222;16.332;2023-05-07T15:06:45;21.60;54.90
17843;DHT22;69286;48.222;16.332;2023-05-07T15:09:12;21.70;54.70
17843;DHT22;69286;48.222;16.332;2023-05-07T15:11:41;21.80;54.20
17843;DHT22;69286;48.222;16.332;2023-05-07T15:14:09;21.70;54.20
17843;DHT22;69286;48.222;16.332;2023-05-07T15:16:36;21.80;54.10
17843;DHT22;69286;48.222;16.332;2023-05-07T15:19:03;21.60;54.60
17843;DHT22;69286;48.222;16.332;2023-05-07T15:21:30;21.40;54.40